createdAt,value
2019-05-21T00:03:52.758Z,98845.73
2019-05-21T00:08:54.847Z,98847.16
2019-05-21T00:13:56.944Z,98857.60
2019-05-21T00:18:59.035Z,98855.80
2019-05-21T00:24:01.204Z,98863.22
2019-05-21T00:29:40.064Z,98868.53
2019-05-21T00:35:19.311Z,98874.66
2019-05-21T00:40:58.360Z,98872.92
2019-05-21T00:46:00.453Z,98875.27
2019-05-21T00:51:02.537Z,98864.31
2019-05-21T00:56:04.625Z,98870.06
2019-05-21T01:01:06.712Z,98875.69
2019-05-21T01:06:08.755Z,98882.06
2019-05-21T01:11:10.828Z,98887.44
2019-05-21T01:16:12.927Z,98891.47
2019-05-21T01:21:15.009Z,98886.82
2019-05-21T01:26:17.113Z,98892.91
2019-05-21T01:31:19.289Z,98905.80
2019-05-21T01:36:21.443Z,98914.73
2019-05-21T01:41:23.542Z,98914.77
2019-05-21T01:46:28.001Z,98922.88
2019-05-21T01:51:30.063Z,98929.73
2019-05-21T01:56:32.186Z,98930.06
2019-05-21T02:01:34.256Z,98922.33
2019-05-21T02:06:36.371Z,98921.09
2019-05-21T02:11:38.516Z,98924.20
2019-05-21T02:16:40.590Z,98927.52
2019-05-21T02:21:42.676Z,98924.20
2019-05-21T02:26:44.758Z,98924.52
2019-05-21T02:31:46.829Z,98918.56
2019-05-21T02:36:48.982Z,98917.86
2019-05-21T02:41:51.039Z,98918.53
2019-05-21T02:46:53.121Z,98924.23
2019-05-21T02:51:55.239Z,98920.92
2019-05-21T02:56:57.430Z,98924.48
2019-05-21T03:02:05.769Z,98922.58
2019-05-21T03:07:19.669Z,98926.59
2019-05-21T03:12:21.784Z,98934.33
2019-05-21T03:17:23.884Z,98929.36
2019-05-21T03:22:25.959Z,98934.81
2019-05-21T03:27:28.079Z,98944.08
2019-05-21T03:32:30.934Z,98939.63
2019-05-21T03:37:33.040Z,98942.73
2019-05-21T03:42:35.131Z,98945.55
2019-05-21T03:47:39.314Z,98946.25
2019-05-21T03:52:41.421Z,98960.05
2019-05-21T03:57:43.472Z,98963.48
2019-05-21T04:02:45.585Z,98961.09
2019-05-21T04:07:47.697Z,98970.72
2019-05-21T04:13:05.922Z,98972.92
2019-05-21T04:18:15.341Z,98978.11
2019-05-21T04:23:17.434Z,98982.86
2019-05-21T04:28:19.497Z,98993.02
2019-05-21T04:33:21.570Z,98993.70
2019-05-21T04:38:23.867Z,98995.70
2019-05-21T04:43:26.106Z,98990.19
2019-05-21T04:48:28.338Z,99002.52
2019-05-21T04:53:30.381Z,99006.51
2019-05-21T04:58:32.517Z,99009.23
2019-05-21T05:03:34.704Z,99013.17
2019-05-21T05:08:36.761Z,99013.05
2019-05-21T05:13:38.833Z,99023.47
2019-05-21T05:18:41.038Z,99028.80
2019-05-21T05:23:43.138Z,99041.59
2019-05-21T05:28:45.326Z,99048.03
2019-05-21T05:33:47.437Z,99051.31
2019-05-21T05:38:51.917Z,99043.25
2019-05-21T05:43:53.978Z,99056.86
2019-05-21T05:49:02.162Z,99053.61
2019-05-21T05:54:07.534Z,99055.55
2019-05-21T05:59:09.782Z,99066.45
2019-05-21T06:04:11.938Z,99080.61
2019-05-21T06:09:14.058Z,99082.18
2019-05-21T06:14:16.112Z,99093.91
2019-05-21T06:19:18.521Z,99087.66
2019-05-21T06:24:20.710Z,99093.84
2019-05-21T06:29:22.767Z,99099.94
2019-05-21T06:34:27.003Z,99095.84
2019-05-21T06:39:29.043Z,99094.82
2019-05-21T06:44:31.113Z,99096.41
2019-05-21T06:49:34.168Z,99112.22
2019-05-21T06:54:36.237Z,99123.66
2019-05-21T06:59:38.363Z,99110.38
2019-05-21T07:04:40.471Z,99109.19
2019-05-21T07:09:42.622Z,99122.59
2019-05-21T07:14:44.699Z,99136.59
2019-05-21T07:19:46.897Z,99126.60
2019-05-21T07:24:49.006Z,99128.59
2019-05-21T07:29:51.088Z,99137.77
2019-05-21T07:34:53.215Z,99151.38
2019-05-21T07:39:55.314Z,99144.94
2019-05-21T07:44:57.529Z,99148.67
2019-05-21T07:49:59.705Z,99146.47
2019-05-21T07:55:01.819Z,99149.45
2019-05-21T08:00:05.481Z,99156.72
2019-05-21T08:05:07.776Z,99157.67
2019-05-21T08:10:10.270Z,99161.16
2019-05-21T08:15:12.773Z,99155.51
2019-05-21T08:20:16.890Z,99164.42
2019-05-21T08:25:21.045Z,99165.73
2019-05-21T08:30:23.103Z,99162.64
2019-05-21T08:35:27.416Z,99165.48
2019-05-21T08:40:29.746Z,99162.32
2019-05-21T08:45:31.932Z,99166.90
2019-05-21T08:50:34.231Z,99179.61
2019-05-21T08:55:36.384Z,99180.72
2019-05-21T09:00:38.619Z,99182.34
2019-05-21T09:05:40.712Z,99185.92
2019-05-21T09:10:42.768Z,99187.88
2019-05-21T09:15:45.163Z,99187.78
2019-05-21T09:20:47.296Z,99191.47
2019-05-21T09:25:49.789Z,99190.86
2019-05-21T09:30:52.308Z,99197.69
2019-05-21T09:35:54.451Z,99195.20
2019-05-21T09:40:56.605Z,99209.20
2019-05-21T09:45:58.671Z,99204.91
2019-05-21T09:51:00.970Z,99208.08
2019-05-21T09:56:23.202Z,99209.28
2019-05-21T10:01:31.855Z,99210.75
2019-05-21T10:06:33.938Z,99217.94
2019-05-21T10:11:36.037Z,99228.86
2019-05-21T10:16:38.121Z,99221.12
2019-05-21T10:21:40.236Z,99231.60
2019-05-21T10:26:42.490Z,99236.27
2019-05-21T10:31:44.694Z,99228.35
2019-05-21T10:36:46.821Z,99239.92
2019-05-21T10:41:49.009Z,99250.41
2019-05-21T10:46:51.300Z,99243.30
2019-05-21T10:51:53.446Z,99250.99
2019-05-21T10:56:55.596Z,99248.75
2019-05-21T11:02:17.505Z,99252.75
2019-05-21T11:07:21.983Z,99258.09
2019-05-21T11:12:24.557Z,99262.17
2019-05-21T11:17:26.730Z,99261.30
2019-05-21T11:22:29.052Z,99264.11
2019-05-21T11:27:31.444Z,99263.50
2019-05-21T11:32:33.733Z,99267.78
2019-05-21T11:37:35.988Z,99264.96
2019-05-21T11:42:38.127Z,99262.99
2019-05-21T11:47:40.795Z,99264.84
2019-05-21T11:52:42.896Z,99272.31
2019-05-21T11:57:45.145Z,99277.64
2019-05-21T12:02:47.210Z,99278.59
2019-05-21T12:07:49.310Z,99276.63
2019-05-21T12:12:51.478Z,99280.95
2019-05-21T12:17:53.671Z,99283.28
2019-05-21T12:22:55.858Z,99276.23
2019-05-21T12:27:58.513Z,99277.05
2019-05-21T12:33:00.581Z,99282.21
2019-05-21T12:38:03.120Z,99282.59
2019-05-21T12:43:06.809Z,99285.23
2019-05-21T12:48:11.021Z,99285.23
2019-05-21T12:53:16.423Z,99284.05
2019-05-21T12:58:20.170Z,99288.68
2019-05-21T13:03:22.323Z,99296.39
2019-05-21T13:08:24.795Z,99295.77
2019-05-21T13:13:26.898Z,99287.91
2019-05-21T13:18:28.952Z,99297.43
2019-05-21T13:23:33.366Z,99300.06
2019-05-21T13:28:35.549Z,99301.33
2019-05-21T13:33:37.669Z,99298.39
2019-05-21T13:38:39.741Z,99308.25
2019-05-21T13:43:44.132Z,99310.32
2019-05-21T13:48:47.020Z,99315.45
2019-05-21T13:53:49.451Z,99314.91
2019-05-21T13:58:51.573Z,99316.91
2019-05-21T14:03:53.789Z,99326.16
2019-05-21T14:08:55.919Z,99321.53
2019-05-21T14:13:58.015Z,99320.94
2019-05-21T14:19:00.179Z,99328.22
2019-05-21T14:24:05.277Z,99331.95
2019-05-21T14:29:07.422Z,99332.70
2019-05-21T14:34:09.562Z,99335.48
2019-05-21T14:39:14.608Z,99337.77
2019-05-21T14:44:16.802Z,99342.23
2019-05-21T14:49:22.736Z,99344.00
2019-05-21T14:54:26.987Z,99344.78
2019-05-21T14:59:29.044Z,99339.08
2019-05-21T15:04:31.377Z,99343.23
2019-05-21T15:09:34.073Z,99345.52
2019-05-21T15:14:38.732Z,99343.70
2019-05-21T15:19:44.484Z,99352.17
2019-05-21T15:24:46.589Z,99359.50
2019-05-21T15:29:48.732Z,99356.11
2019-05-21T15:34:50.912Z,99357.82
2019-05-21T15:39:55.292Z,99360.58
2019-05-21T15:44:57.447Z,99370.13
2019-05-21T15:49:59.642Z,99367.84
2019-05-21T15:55:06.270Z,99378.82
2019-05-21T16:00:05.803Z,99377.62
2019-05-21T16:05:08.433Z,99379.17
2019-05-21T16:10:34.921Z,99383.44
2019-05-21T16:15:38.164Z,99385.22
2019-05-21T16:20:42.457Z,99391.91
2019-05-21T16:25:44.451Z,99402.43
2019-05-21T16:30:46.674Z,99415.11
2019-05-21T16:35:48.731Z,99408.66
2019-05-21T16:40:50.901Z,99415.61
2019-05-21T16:45:53.181Z,99426.78
2019-05-21T16:50:55.230Z,99424.69
2019-05-21T16:55:57.291Z,99430.43
2019-05-21T17:01:00.035Z,99427.28
2019-05-21T17:06:02.124Z,99438.73
2019-05-21T17:11:04.231Z,99438.02
2019-05-21T17:16:06.441Z,99438.20
2019-05-21T17:21:10.209Z,99448.91
2019-05-21T17:26:12.400Z,99452.36
2019-05-21T17:31:14.503Z,99457.66
2019-05-21T17:36:16.652Z,99464.00
2019-05-21T17:41:18.787Z,99471.86
2019-05-21T17:46:20.856Z,99486.89
2019-05-21T17:51:26.053Z,99500.70
2019-05-21T17:56:28.257Z,99496.56
2019-05-21T18:01:49.613Z,99501.94
2019-05-21T18:06:56.010Z,99516.03
2019-05-21T18:11:58.072Z,99526.64
2019-05-21T18:17:01.754Z,99531.81
2019-05-21T18:22:09.485Z,99551.84
2019-05-21T18:27:23.667Z,99560.13
2019-05-21T18:32:30.044Z,99578.51
2019-05-21T18:37:32.744Z,99582.50
2019-05-21T18:42:35.322Z,99589.80
2019-05-21T18:47:37.430Z,99590.97
2019-05-21T18:52:39.569Z,99594.48
2019-05-21T18:57:41.681Z,99603.89
2019-05-21T19:02:49.814Z,99608.69
2019-05-21T19:07:51.955Z,99621.91
2019-05-21T19:12:56.610Z,99629.89
2019-05-21T19:17:58.733Z,99644.30
2019-05-21T19:23:20.230Z,99656.36
2019-05-21T19:28:42.863Z,99662.06
2019-05-21T19:33:55.583Z,99676.59
2019-05-21T19:38:59.648Z,99678.71
2019-05-21T19:44:01.959Z,99699.27
2019-05-21T19:49:18.878Z,99703.84
2019-05-21T19:54:21.012Z,99714.33
2019-05-21T19:59:24.208Z,99726.63
2019-05-21T20:04:26.922Z,99732.87
2019-05-21T20:09:31.137Z,99745.59
2019-05-21T20:14:33.195Z,99742.89
2019-05-21T20:19:35.861Z,99751.47
2019-05-21T20:24:39.096Z,99748.57
2019-05-21T20:29:41.964Z,99748.76
2019-05-21T20:34:44.113Z,99755.20
2019-05-21T20:39:47.969Z,99758.78
2019-05-21T20:44:55.613Z,99760.20
2019-05-21T20:49:57.868Z,99765.10
2019-05-21T20:55:03.178Z,99754.41
2019-05-21T21:00:07.610Z,99762.23
2019-05-21T21:05:11.952Z,99754.49
2019-05-21T21:10:14.013Z,99747.34
2019-05-21T21:15:16.692Z,99755.57
2019-05-21T21:20:18.831Z,99761.71
2019-05-21T21:25:22.175Z,99754.06
2019-05-21T21:30:24.604Z,99766.39
2019-05-21T21:35:30.353Z,99777.71
2019-05-21T21:40:32.529Z,99792.70
2019-05-21T21:45:34.727Z,99795.53
2019-05-21T21:50:37.852Z,99791.47
2019-05-21T21:55:40.192Z,99789.70
2019-05-21T22:01:28.682Z,99789.79
2019-05-21T22:06:33.566Z,99779.93
2019-05-21T22:11:36.673Z,99781.75
2019-05-21T22:16:38.792Z,99786.87
2019-05-21T22:21:41.152Z,99793.01
2019-05-21T22:26:43.195Z,99794.33
2019-05-21T22:31:46.916Z,99799.52
2019-05-21T22:36:49.107Z,99802.87
2019-05-21T22:41:51.520Z,99801.81
2019-05-21T22:46:54.102Z,99813.08
2019-05-21T22:51:56.348Z,99817.23
2019-05-21T22:56:58.431Z,99820.80
2019-05-21T23:02:02.440Z,99817.53
2019-05-21T23:07:05.202Z,99820.49
2019-05-21T23:12:07.996Z,99803.48
2019-05-21T23:17:10.582Z,99812.41
2019-05-21T23:22:15.782Z,99817.98
2019-05-21T23:27:18.866Z,99813.82
2019-05-21T23:32:21.613Z,99798.62
2019-05-21T23:37:24.800Z,99805.92
2019-05-21T23:42:29.768Z,99807.84
2019-05-21T23:47:31.047Z,99804.31
2019-05-21T23:52:37.135Z,99806.55
2019-05-21T23:57:39.737Z,99810.31
